Deer Ridge, Missouri
Current Conditions -  °F | °C
As of 1:55 AM on Thursday 29 Jan 2015 (Local Time) from KIRK Reporting Station
Light Rain Light Rain  
Wind Chill: 34°   Ceiling: 1900
Heat Index: 43°   Visibility: 9mi
Dew Point: 36°   Wind: 20mph
Humidity: 76%   Direction: 310°NW
Pressure: 29.81"   Gusts: 38mph
Location:  40.1039°N, 91.9128°W
Report Text: KIRK 290755Z AUTO 31017G33KT 9SM -RA BKN019 06/02 A2981 RMK AO2 PK WND 30033/0746 SLP101 P0000 T00610022
Loading
Personal Weather Stations






























Interactive Weather Map New forecast layout! Learn more

10-Day Weather Forecast

Advertisements
Track Severe Weather on mobile